Portada
METAR-TAF:

METAR-TAF

Aeroports :

Laupheim, Alemanya

latitud: 48-13N, longitud: 009-55E, altitud: 538 m

Observació

L'informe es va fer fa 56 minuts, a les 23:20 UTC
Vent calma
Temperatura 2°C
Humitat 80%
Pressió 1020 hPa
Visibilitat 10 km o més
Núvols disperses a una alçada de 6000 ft

METAR: ETHL 032320Z 00000KT 9999 SCT060 02/M01 Q1020 BLU+

Hora: 02:16 (00:16 UTC)

Pronòstic

L'informe es va fer fa 15 hores i 16 minuts, a les 09:00 UTC
Pronòstic vàlid del 03 a les 08 UTC al 03 a les 17 UTC
Vent 7 kt del Sud-Oest
Visibilitat: 1000 m
Escasses núvols a una alçada de 6000 ft

TAF: ETHL 030900Z 0308/0317 23007KT 9999 NSW FEW060 CANCEL 1000

Observacions i pronòstics meteorològics de més de 4000 aeroports (METAR i TAF).

Les estacions disponibles són els punts grocs i vermells al mapa.

Posi el ratolí al punt desitjat per veure el nom de l'estació.

Feu clic per veure les observacions i els pronòstics meteorològics.

Per canviar el mapa: feu clic els botons verds amb una creu de color negre per apropar; al botó verd amb un guió per allunyar la imatge; o en les fletxes verdes per a mapes adjacents.


METAR-TAF: